Time;durP1;ratioP1;P1;durP2;ratioP2;P2;SDS_P1;SDS_P2;PMS_P1;PMS_P2;Temp;Humidity;BMP_temperature;BMP_pressure;BME280_temperature;BME280_humidity;BME280_pressure;Samples;Min_cycle;Max_cycle;Signal;HPM_P1;HPM_P2
2022/08/13 00:02:45;;;;;;;5.17;2.87;;;26.80;99.90;;;;;;6180543;23;20157;-88
2022/08/13 00:05:24;;;;;;;7.43;3.27;;;26.70;1.00;;;;;;6155890;23;20170;-89
2022/08/13 00:07:58;;;;;;;6.17;2.90;;;26.50;99.90;;;;;;6171069;23;20154;-88
2022/08/13 00:10:53;;;;;;;6.23;3.70;;;26.30;1.00;;;;;;6173478;23;20175;-88
2022/08/13 00:13:50;;;;;;;6.63;2.93;;;26.30;1.00;;;;;;6150870;23;20158;-89
2022/08/13 00:16:31;;;;;;;4.97;3.40;;;26.20;1.00;;;;;;6150963;23;20170;-89
2022/08/13 00:19:34;;;;;;;5.70;3.30;;;26.10;1.00;;;;;;6146420;23;20160;-88
2022/08/13 00:22:26;;;;;;;9.40;3.70;;;26.00;1.00;;;;;;6173564;23;20178;-88
2022/08/13 00:24:55;;;;;;;9.63;3.77;;;25.90;1.00;;;;;;6152609;23;20183;-88
2022/08/13 00:28:05;;;;;;;5.57;3.77;;;25.90;1.00;;;;;;6151168;23;20146;-88
2022/08/13 00:30:43;;;;;;;8.30;3.87;;;25.70;1.00;;;;;;6148559;23;20175;-89
2022/08/13 00:33:57;;;;;;;5.73;3.40;;;25.70;1.00;;;;;;6149963;23;20170;-88
2022/08/13 00:36:51;;;;;;;7.87;3.33;;;25.90;1.00;;;;;;6176286;23;20170;-89
2022/08/13 00:39:37;;;;;;;6.27;3.50;;;25.70;1.00;;;;;;6151750;23;20162;-90
2022/08/13 00:42:27;;;;;;;8.50;3.37;;;25.60;1.00;;;;;;6179273;23;20138;-88
2022/08/13 00:45:20;;;;;;;9.97;3.67;;;25.50;1.00;;;;;;6150064;23;20206;-88
2022/08/13 00:51:38;;;;;;;6.70;3.40;;;25.40;1.00;;;;;;6180121;23;20145;-88
2022/08/13 00:54:17;;;;;;;7.77;3.83;;;25.10;1.00;;;;;;6146968;23;20165;-87
2022/08/13 00:57:15;;;;;;;4.73;3.43;;;25.00;1.00;;;;;;6156166;23;20199;-88
2022/08/13 01:00:31;;;;;;;5.00;3.40;;;25.00;1.00;;;;;;6148876;23;20245;-89
2022/08/13 01:06:25;;;;;;;9.20;3.40;;;25.00;1.00;;;;;;6178779;23;20153;-88
2022/08/13 01:12:39;;;;;;;6.70;3.17;;;24.80;1.00;;;;;;6180476;23;20161;-89
2022/08/13 01:19:09;;;;;;;7.10;3.40;;;24.70;1.00;;;;;;6183152;23;20149;-88
2022/08/13 01:24:52;;;;;;;5.27;3.77;;;24.50;1.00;;;;;;6153153;23;20187;-89
2022/08/13 01:34:20;;;;;;;7.53;3.47;;;24.70;1.00;;;;;;6153564;23;20155;-88
2022/08/13 01:37:54;;;;;;;7.47;3.60;;;24.80;1.00;;;;;;6145110;23;20171;-88
2022/08/13 01:40:38;;;;;;;5.47;3.90;;;24.80;1.00;;;;;;6145624;23;20163;-89
2022/08/13 01:43:36;;;;;;;8.00;3.23;;;24.70;1.00;;;;;;6153454;23;20156;-88
2022/08/13 01:53:36;;;;;;;8.87;3.53;;;24.70;1.00;;;;;;6154620;23;20146;-87
2022/08/13 02:03:34;;;;;;;5.83;3.00;;;24.30;1.00;;;;;;6184081;23;20166;-88
2022/08/13 02:06:06;;;;;;;7.37;3.20;;;24.30;1.00;;;;;;6150921;23;20249;-88
2022/08/13 02:08:49;;;;;;;5.47;3.40;;;24.40;1.00;;;;;;6141294;23;20202;-89
2022/08/13 02:11:39;;;;;;;6.27;3.47;;;24.40;1.00;;;;;;6151969;23;20135;-89
2022/08/13 02:14:58;;;;;;;5.60;3.10;;;24.40;1.00;;;;;;6151398;23;20187;-89
2022/08/13 02:17:57;;;;;;;7.53;3.40;;;24.40;1.00;;;;;;6149586;23;20151;-90
2022/08/13 02:21:31;;;;;;;5.20;2.73;;;24.30;1.00;;;;;;6151868;23;20163;-90
2022/08/13 02:24:52;;;;;;;6.33;3.20;;;24.30;1.00;;;;;;6139658;23;20139;-90
2022/08/13 02:28:12;;;;;;;4.70;3.07;;;24.40;1.00;;;;;;6154361;23;20179;-89
2022/08/13 02:31:12;;;;;;;6.00;2.80;;;24.40;1.00;;;;;;6143993;23;20159;-90
2022/08/13 02:34:43;;;;;;;3.97;2.73;;;24.10;1.00;;;;;;6152366;23;20237;-90
2022/08/13 02:38:11;;;;;;;6.73;3.27;;;24.30;1.00;;;;;;6153356;23;20194;-88
2022/08/13 02:41:43;;;;;;;7.67;3.30;;;24.40;1.00;;;;;;6154332;23;20147;-90
2022/08/13 02:44:52;;;;;;;7.50;3.50;;;24.40;1.00;;;;;;6148451;23;20202;-92
2022/08/13 02:48:02;;;;;;;7.67;3.43;;;24.20;55.90;;;;;;6155768;23;20142;-92
2022/08/13 02:51:05;;;;;;;5.43;3.50;;;24.00;99.90;;;;;;6156500;23;20139;-89
2022/08/13 02:54:11;;;;;;;6.37;3.70;;;23.50;99.90;;;;;;6155881;23;20126;-89
2022/08/13 02:57:45;;;;;;;11.40;5.23;;;23.30;1.00;;;;;;6096645;23;20159;-91
2022/08/13 03:00:49;;;;;;;11.23;6.73;;;23.20;1.00;;;;;;6072818;23;20183;-89
2022/08/13 03:04:06;;;;;;;8.40;5.87;;;23.10;1.00;;;;;;6095370;23;20236;-89
2022/08/13 03:07:19;;;;;;;10.70;5.27;;;23.20;1.00;;;;;;6095156;23;20180;-90
2022/08/13 03:10:03;;;;;;;9.27;5.53;;;23.00;1.00;;;;;;6095537;23;20185;-90
2022/08/13 03:16:15;;;;;;;5.77;4.10;;;22.80;99.90;;;;;;6115040;23;20162;-89
2022/08/13 03:19:22;;;;;;;7.63;4.27;;;22.60;99.90;;;;;;6113797;23;20161;-89
2022/08/13 03:22:38;;;;;;;8.30;4.37;;;22.60;99.90;;;;;;6112112;23;20241;-89
2022/08/13 03:25:53;;;;;;;6.40;3.80;;;22.50;99.90;;;;;;6126423;23;20183;-90
2022/08/13 03:28:43;;;;;;;5.93;3.67;;;22.60;99.90;;;;;;6126315;23;20138;-91
2022/08/13 03:31:10;;;;;;;6.30;3.37;;;22.40;99.90;;;;;;6126148;23;20137;-89
2022/08/13 03:44:50;;;;;;;5.33;3.27;;;22.40;1.00;;;;;;6126314;23;20189;-92
2022/08/13 03:47:42;;;;;;;5.40;3.27;;;22.30;1.00;;;;;;6125294;23;20156;-93
2022/08/13 03:51:00;;;;;;;6.40;3.40;;;22.30;49.70;;;;;;6125118;23;20145;-90
2022/08/13 03:53:53;;;;;;;5.00;3.40;;;22.30;99.90;;;;;;6125338;23;20148;-89
2022/08/13 03:57:19;;;;;;;4.93;3.40;;;22.20;99.90;;;;;;6126408;23;20135;-92
2022/08/13 04:04:24;;;;;;;6.60;3.67;;;21.90;99.90;;;;;;6121818;23;20154;-90
2022/08/13 04:07:31;;;;;;;5.23;3.07;;;21.80;99.90;;;;;;6110883;23;20226;-90
2022/08/13 04:10:30;;;;;;;7.73;3.67;;;21.70;99.90;;;;;;6114810;23;20152;-90
2022/08/13 04:13:16;;;;;;;4.23;3.10;;;21.80;99.90;;;;;;6115532;23;20182;-89
2022/08/13 04:15:46;;;;;;;7.93;3.67;;;21.90;99.90;;;;;;6108781;23;20172;-92
2022/08/13 04:19:07;;;;;;;7.83;3.53;;;21.90;1.00;;;;;;6108018;23;20164;-88
2022/08/13 04:21:37;;;;;;;7.70;3.80;;;21.80;99.90;;;;;;6118224;23;20152;-91
2022/08/13 04:24:18;;;;;;;6.40;3.03;;;21.80;99.90;;;;;;6114875;23;20223;-95
2022/08/13 04:26:47;;;;;;;7.33;3.27;;;22.00;99.90;;;;;;6119967;23;20149;-90
2022/08/13 04:29:18;;;;;;;5.80;3.60;;;22.00;99.90;;;;;;6121637;23;20154;-90
2022/08/13 04:35:04;;;;;;;7.63;3.60;;;22.10;1.00;;;;;;6121440;23;20185;-93
2022/08/13 04:37:31;;;;;;;6.93;3.23;;;22.10;1.00;;;;;;6101908;23;20162;-92
2022/08/13 04:40:22;;;;;;;5.37;3.17;;;22.00;1.00;;;;;;6146274;23;20149;-94
2022/08/13 04:43:12;;;;;;;7.70;3.77;;;21.80;99.90;;;;;;6110592;23;20133;-88
2022/08/13 04:46:00;;;;;;;6.77;3.63;;;21.90;1.00;;;;;;6112169;23;20210;-91
2022/08/13 04:48:33;;;;;;;7.60;3.70;;;22.00;99.90;;;;;;6123716;23;20157;-91
2022/08/13 04:52:13;;;;;;;7.50;3.30;;;22.10;99.90;;;;;;6124591;23;20164;-91
2022/08/13 04:58:12;;;;;;;7.93;3.50;;;22.20;1.20;;;;;;6124532;23;20131;-91
2022/08/13 05:01:03;;;;;;;6.43;3.70;;;22.10;1.00;;;;;;6114844;23;20165;-91
2022/08/13 05:03:49;;;;;;;7.47;3.87;;;22.10;99.90;;;;;;6112708;23;20182;-93
2022/08/13 05:07:01;;;;;;;7.10;3.60;;;22.10;99.90;;;;;;6123094;23;20243;-92
2022/08/13 05:09:47;;;;;;;6.57;3.43;;;22.10;99.90;;;;;;6122438;23;20200;-96
2022/08/13 05:12:45;;;;;;;10.23;4.90;;;22.20;99.90;;;;;;6122808;23;20173;-92
2022/08/13 05:18:45;;;;;;;4.33;2.90;;;22.30;99.90;;;;;;6125132;23;20163;-94
2022/08/13 05:21:41;;;;;;;6.67;3.53;;;22.00;4.50;;;;;;6125848;23;20125;-89
2022/08/13 05:25:00;;;;;;;7.10;3.47;;;22.10;1.00;;;;;;6124415;23;20133;-87
2022/08/13 05:27:44;;;;;;;6.77;3.47;;;22.20;1.00;;;;;;6124751;23;20146;-88
2022/08/13 05:30:51;;;;;;;6.63;3.37;;;22.40;99.90;;;;;;6121954;23;20164;-87
2022/08/13 05:33:24;;;;;;;6.67;3.50;;;22.50;99.90;;;;;;6112285;23;20161;-88
2022/08/13 05:35:58;;;;;;;6.67;3.67;;;22.80;99.90;;;;;;6111836;23;20146;-89
2022/08/13 05:39:13;;;;;;;10.40;3.67;;;22.80;99.90;;;;;;6117478;23;20159;-88
2022/08/13 05:42:06;;;;;;;7.03;3.63;;;23.00;99.90;;;;;;6113220;23;20165;-88
2022/08/13 05:45:02;;;;;;;7.80;3.47;;;23.00;99.90;;;;;;6108859;23;20190;-89
2022/08/13 05:47:31;;;;;;;8.43;3.60;;;23.00;99.90;;;;;;6124786;23;20130;-89
2022/08/13 05:50:17;;;;;;;6.20;3.50;;;23.10;99.90;;;;;;6149229;23;20143;-88
2022/08/13 05:52:44;;;;;;;8.17;3.70;;;23.30;1.00;;;;;;6124353;23;20183;-88
2022/08/13 05:55:22;;;;;;;8.47;3.27;;;23.50;71.30;;;;;;6125459;23;20218;-89
2022/08/13 05:58:12;;;;;;;7.47;3.60;;;23.60;9.80;;;;;;6125157;23;20146;-88
2022/08/13 06:04:01;;;;;;;13.50;3.47;;;23.70;1.00;;;;;;6107892;23;20165;-90
2022/08/13 06:06:46;;;;;;;7.67;3.50;;;23.80;1.00;;;;;;6132377;23;20162;-89
2022/08/13 06:09:19;;;;;;;6.67;3.67;;;24.00;1.00;;;;;;6119509;23;20615;-89
2022/08/13 06:12:38;;;;;;;9.13;2.90;;;24.10;99.90;;;;;;6144244;23;20155;-90
2022/08/13 06:15:22;;;;;;;7.10;2.70;;;24.30;99.90;;;;;;6110031;23;20188;-96
2022/08/13 06:21:12;;;;;;;5.73;2.40;;;24.70;25.70;;;;;;6112765;23;20146;-89
2022/08/13 06:23:59;;;;;;;7.33;2.57;;;24.90;1.00;;;;;;6115198;23;20156;-89
2022/08/13 06:26:26;;;;;;;6.53;2.57;;;25.20;1.00;;;;;;6117927;23;20191;-93
2022/08/13 06:29:15;;;;;;;6.50;2.50;;;25.40;1.00;;;;;;6133327;23;20155;-91
2022/08/13 06:32:06;;;;;;;3.53;2.20;;;25.60;1.00;;;;;;6107683;23;20185;-96
2022/08/13 06:34:37;;;;;;;3.73;2.03;;;25.80;1.00;;;;;;6102130;23;20300;-94
2022/08/13 06:37:08;;;;;;;4.90;2.40;;;26.00;1.00;;;;;;6107876;23;20188;-94
2022/08/13 06:40:00;;;;;;;7.57;2.80;;;26.00;1.00;;;;;;6119777;23;20144;-92
2022/08/13 06:43:08;;;;;;;7.00;2.50;;;26.00;1.00;;;;;;6118150;23;20156;-91
2022/08/13 06:45:42;;;;;;;4.00;2.10;;;26.10;1.00;;;;;;6116105;23;20278;-94
2022/08/13 06:48:17;;;;;;;6.50;2.00;;;26.20;1.00;;;;;;6111830;23;20159;-91
2022/08/13 06:50:54;;;;;;;6.23;2.27;;;26.30;1.00;;;;;;6117853;23;20140;-90
2022/08/13 06:53:48;;;;;;;3.73;1.97;;;26.40;1.00;;;;;;6121871;23;20159;-90
2022/08/13 06:56:18;;;;;;;5.00;2.20;;;26.50;1.00;;;;;;6115890;23;20514;-95
2022/08/13 06:58:46;;;;;;;11.60;2.20;;;26.70;1.00;;;;;;6082940;23;20223;-91
2022/08/13 07:02:00;;;;;;;9.50;1.87;;;26.60;1.00;;;;;;6118747;23;20156;-91
2022/08/13 07:04:26;;;;;;;3.97;2.10;;;26.60;1.00;;;;;;6126180;23;20202;-93
2022/08/13 07:06:52;;;;;;;3.40;1.50;;;26.70;1.00;;;;;;6144967;23;20167;-93
2022/08/13 07:09:48;;;;;;;3.33;1.97;;;26.70;1.00;;;;;;6126887;23;20147;-91
2022/08/13 07:16:16;;;;;;;4.10;1.73;;;27.00;1.00;;;;;;6122838;23;20194;-90
2022/08/13 07:18:54;;;;;;;12.30;2.47;;;27.20;1.00;;;;;;6119117;23;20155;-92
2022/08/13 07:21:24;;;;;;;5.07;2.40;;;27.30;1.00;;;;;;6108994;23;20582;-92
2022/08/13 07:23:52;;;;;;;7.00;2.10;;;27.30;1.00;;;;;;6112580;23;20171;-92
2022/08/13 07:26:19;;;;;;;3.27;1.60;;;27.40;1.00;;;;;;6099750;23;20185;-89
2022/08/13 07:28:49;;;;;;;16.92;3.22;;;27.60;1.00;;;;;;6124451;23;20144;-91
2022/08/13 07:31:23;;;;;;;6.10;2.00;;;27.60;1.00;;;;;;6149904;23;20174;-89
2022/08/13 07:33:54;;;;;;;3.38;1.95;;;27.60;1.00;;;;;;6101632;23;20171;-87
2022/08/13 07:36:29;;;;;;;4.40;1.60;;;27.50;1.00;;;;;;6124931;23;20160;-86
2022/08/13 07:39:00;;;;;;;4.57;2.00;;;27.50;1.00;;;;;;6123012;23;20187;-86
2022/08/13 07:41:28;;;;;;;3.92;1.70;;;27.70;1.00;;;;;;6121339;23;20163;-93
2022/08/13 07:44:02;;;;;;;2.95;1.80;;;27.90;1.00;;;;;;6107285;23;20162;-96
2022/08/13 07:46:34;;;;;;;2.40;1.48;;;28.10;1.00;;;;;;6101904;23;20207;-96
2022/08/13 07:49:03;;;;;;;4.35;1.77;;;28.20;1.00;;;;;;6108097;23;20146;-88
2022/08/13 07:51:46;;;;;;;5.13;1.50;;;28.20;1.00;;;;;;6148760;23;20160;-93
2022/08/13 07:54:12;;;;;;;3.45;1.80;;;28.30;1.00;;;;;;6109490;23;20191;-94
2022/08/13 07:56:47;;;;;;;4.05;1.83;;;28.40;1.00;;;;;;6106311;23;20150;-93
2022/08/13 07:59:17;;;;;;;4.00;2.03;;;28.40;1.00;;;;;;6127652;23;20175;-94
2022/08/13 08:01:49;;;;;;;4.28;1.80;;;28.40;1.00;;;;;;6104723;23;20150;-90
2022/08/13 08:04:19;;;;;;;4.05;1.75;;;28.50;1.00;;;;;;6119206;23;20215;-84
2022/08/13 08:06:51;;;;;;;5.03;1.90;;;28.60;1.00;;;;;;6098894;23;20215;-89
2022/08/13 08:09:25;;;;;;;3.85;1.65;;;28.70;1.00;;;;;;6096183;23;20224;-86
2022/08/13 08:14:53;;;;;;;5.00;1.70;;;28.80;99.90;;;;;;6108985;23;20159;-95
2022/08/13 08:17:18;;;;;;;3.88;1.50;;;28.70;99.90;;;;;;6128305;23;20167;-94
2022/08/13 08:19:56;;;;;;;2.72;1.80;;;28.90;99.90;;;;;;6130416;23;20148;-93
2022/08/13 08:23:19;;;;;;;6.20;1.70;;;29.10;99.90;;;;;;6123520;23;20151;-91
2022/08/13 08:36:15;;;;;;;2.17;1.50;;;29.40;99.90;;;;;;6154922;23;20126;-90
2022/08/13 08:42:44;;;;;;;5.05;1.83;;;29.50;99.90;;;;;;6154411;23;20187;-89
2022/08/13 08:45:38;;;;;;;2.70;1.33;;;29.80;99.90;;;;;;6153415;23;20222;-90
2022/08/13 08:48:48;;;;;;;3.28;1.33;;;29.90;99.90;;;;;;6152080;23;20251;-95
2022/08/13 08:51:52;;;;;;;6.10;1.40;;;30.00;99.90;;;;;;6154181;23;20138;-91
2022/08/13 08:54:24;;;;;;;3.90;1.23;;;30.00;99.90;;;;;;6148063;23;20170;-91
2022/08/13 08:57:25;;;;;;;3.40;1.30;;;30.00;99.90;;;;;;6152078;23;20158;-92
2022/08/13 08:59:56;;;;;;;3.45;1.60;;;30.20;99.90;;;;;;6142954;23;20175;-96
2022/08/13 09:02:24;;;;;;;3.28;1.20;;;30.20;99.90;;;;;;6145235;23;20163;-94
2022/08/13 09:04:58;;;;;;;3.92;1.55;;;30.50;99.90;;;;;;6122872;23;20175;-93
2022/08/13 09:11:43;;;;;;;3.63;1.88;;;30.50;99.90;;;;;;5132802;28;20181;-96
2022/08/13 09:14:43;;;;;;;3.47;1.30;;;30.50;99.90;;;;;;5133697;28;20218;-91
2022/08/13 09:17:12;;;;;;;1.85;1.23;;;30.50;99.90;;;;;;5134083;28;20170;-92
2022/08/13 09:19:59;;;;;;;4.97;1.35;;;30.70;99.90;;;;;;5130112;28;20183;-94
2022/08/13 09:22:47;;;;;;;3.40;1.60;;;30.80;99.90;;;;;;5127346;28;20253;-90
2022/08/13 09:25:28;;;;;;;2.13;1.20;;;30.90;99.90;;;;;;5127363;28;20179;-92
2022/08/13 09:28:08;;;;;;;1.85;1.55;;;30.90;99.90;;;;;;5127863;28;20239;-89
2022/08/13 09:30:35;;;;;;;2.45;1.35;;;30.80;99.90;;;;;;5129405;28;20159;-92
2022/08/13 09:33:03;;;;;;;1.88;1.40;;;30.80;99.90;;;;;;5126554;28;20167;-92
2022/08/13 09:35:32;;;;;;;1.73;1.38;;;30.70;99.90;;;;;;5121241;28;20548;-90
2022/08/13 09:38:09;;;;;;;3.00;0.98;;;30.80;99.90;;;;;;5124736;28;20723;-90
2022/08/13 09:40:59;;;;;;;2.55;1.23;;;30.60;99.90;;;;;;5123417;28;20258;-94
2022/08/13 09:43:37;;;;;;;3.53;1.58;;;30.60;99.90;;;;;;5120920;28;20191;-93
2022/08/13 09:46:05;;;;;;;2.25;1.50;;;30.80;99.90;;;;;;5122453;28;20187;-91
2022/08/13 09:48:55;;;;;;;4.97;2.80;;;30.80;99.90;;;;;;5111312;28;20171;-91
2022/08/13 09:51:35;;;;;;;2.42;1.20;;;30.90;99.90;;;;;;5129626;28;20233;-89
2022/08/13 09:54:05;;;;;;;2.88;1.00;;;30.80;99.90;;;;;;5115791;28;20179;-89
2022/08/13 09:56:57;;;;;;;2.38;1.10;;;31.10;99.90;;;;;;5132961;28;20175;-90
2022/08/13 09:59:33;;;;;;;2.88;1.27;;;31.40;99.90;;;;;;5120748;28;20180;-92
2022/08/13 10:02:18;;;;;;;1.40;1.05;;;31.60;99.90;;;;;;5108702;28;20199;-90
2022/08/13 10:05:40;;;;;;;4.57;1.60;;;31.60;99.90;;;;;;5105950;28;20171;-90
2022/08/13 10:08:30;;;;;;;2.85;1.52;;;31.70;99.90;;;;;;5107882;28;20184;-92
2022/08/13 10:11:27;;;;;;;3.05;1.23;;;31.80;99.90;;;;;;5109776;28;20171;-90
2022/08/13 10:13:54;;;;;;;3.38;1.70;;;32.10;99.90;;;;;;5112767;28;20160;-89
2022/08/13 10:16:52;;;;;;;5.35;2.00;;;31.90;99.90;;;;;;5113449;28;20179;-93
2022/08/13 10:19:40;;;;;;;3.03;1.27;;;31.80;99.90;;;;;;5099270;28;20160;-89
2022/08/13 10:22:53;;;;;;;1.52;1.20;;;31.70;99.90;;;;;;5096754;28;20152;-90
2022/08/13 10:25:30;;;;;;;1.88;1.00;;;31.90;99.90;;;;;;5096936;28;20512;-94
2022/08/13 10:28:55;;;;;;;3.58;1.38;;;31.90;99.90;;;;;;5080359;28;20164;-92
2022/08/13 10:31:28;;;;;;;3.65;1.00;;;32.00;99.90;;;;;;5093076;28;20176;-92
2022/08/13 10:33:59;;;;;;;4.75;1.50;;;32.20;99.90;;;;;;5090437;28;20198;-92
2022/08/13 10:36:29;;;;;;;3.78;0.98;;;32.30;99.90;;;;;;5095306;28;20171;-93
2022/08/13 10:39:06;;;;;;;4.47;1.40;;;31.80;99.90;;;;;;5076306;28;20203;-92
2022/08/13 10:41:36;;;;;;;4.75;1.23;;;31.20;99.90;;;;;;5094926;28;20172;-93
2022/08/13 10:44:24;;;;;;;3.25;1.10;;;30.80;99.90;;;;;;5099197;28;20241;-92
2022/08/13 10:47:13;;;;;;;4.72;1.40;;;31.00;99.90;;;;;;5080794;28;20188;-94
2022/08/13 10:49:43;;;;;;;4.07;1.27;;;31.20;99.90;;;;;;5097530;28;20180;-91
2022/08/13 10:52:26;;;;;;;1.38;0.90;;;31.50;99.90;;;;;;5096112;28;20184;-96
2022/08/13 10:54:54;;;;;;;5.00;1.13;;;31.50;99.90;;;;;;5100333;28;20188;-96
2022/08/13 10:57:25;;;;;;;4.43;1.48;;;31.50;99.90;;;;;;5096131;28;20171;-96
2022/08/13 11:00:16;;;;;;;2.45;1.13;;;31.60;99.90;;;;;;5092912;28;20192;-96
2022/08/13 11:02:51;;;;;;;1.90;1.05;;;31.70;99.90;;;;;;5094603;28;20631;-94
2022/08/13 11:05:22;;;;;;;1.95;1.17;;;31.40;99.90;;;;;;5079049;28;20319;-96
2022/08/13 11:07:52;;;;;;;6.65;1.38;;;31.30;99.90;;;;;;5092229;28;20192;-96
2022/08/13 11:10:23;;;;;;;2.90;1.08;;;31.40;99.90;;;;;;5072213;28;20255;-95
2022/08/13 11:12:55;;;;;;;9.18;1.40;;;31.20;99.90;;;;;;5087515;28;20239;-95
2022/08/13 11:15:23;;;;;;;6.43;1.38;;;31.10;99.90;;;;;;5087695;28;20182;-94
2022/08/13 11:17:56;;;;;;;3.45;1.02;;;30.80;99.90;;;;;;5075174;28;20164;-91
2022/08/13 11:20:24;;;;;;;2.13;1.10;;;30.70;99.90;;;;;;5095949;28;20164;-94
2022/08/13 11:22:57;;;;;;;2.28;0.90;;;30.90;99.90;;;;;;5092368;28;20188;-95
2022/08/13 11:25:32;;;;;;;3.05;1.05;;;31.20;99.90;;;;;;5090252;28;20173;-95
2022/08/13 11:27:58;;;;;;;3.25;1.38;;;31.50;99.90;;;;;;5088056;28;20240;-91
2022/08/13 11:30:28;;;;;;;2.90;1.20;;;31.70;99.90;;;;;;5084981;28;20168;-94
2022/08/13 11:33:18;;;;;;;3.40;1.00;;;31.90;99.90;;;;;;5072247;28;20172;-94
2022/08/13 11:35:48;;;;;;;5.13;1.30;;;31.90;99.90;;;;;;5090095;28;20313;-96
2022/08/13 11:38:16;;;;;;;3.67;1.23;;;31.40;99.90;;;;;;5072778;28;20228;-95
2022/08/13 11:41:08;;;;;;;5.30;1.40;;;31.40;99.90;;;;;;5090252;28;20192;-96
2022/08/13 11:43:43;;;;;;;4.32;1.20;;;31.30;99.90;;;;;;5094868;28;20165;-94
2022/08/13 11:46:13;;;;;;;4.10;1.17;;;31.30;99.90;;;;;;5098662;28;20204;-95
2022/08/13 11:48:41;;;;;;;2.17;1.02;;;31.20;99.90;;;;;;5098062;28;20160;-89
2022/08/13 11:51:21;;;;;;;3.72;1.25;;;31.00;99.90;;;;;;5096252;28;20176;-91
2022/08/13 11:53:47;;;;;;;1.95;1.00;;;31.10;99.90;;;;;;5087580;28;20183;-95
2022/08/13 11:56:14;;;;;;;1.88;0.90;;;31.00;99.90;;;;;;5087399;28;20176;-95
2022/08/13 11:58:47;;;;;;;2.17;1.08;;;31.00;99.90;;;;;;5089917;28;20196;-91
2022/08/13 12:01:18;;;;;;;3.20;1.20;;;30.90;99.90;;;;;;5070449;28;20218;-96
2022/08/13 12:03:56;;;;;;;7.00;1.52;;;30.90;99.90;;;;;;5072614;28;20175;-92
2022/08/13 12:06:23;;;;;;;2.83;1.20;;;31.10;99.90;;;;;;5085402;28;20269;-95
2022/08/13 12:08:52;;;;;;;1.52;0.90;;;31.20;99.90;;;;;;5088773;28;20704;-94
2022/08/13 12:11:39;;;;;;;2.85;0.90;;;31.30;99.90;;;;;;5090732;28;20184;-92
2022/08/13 12:14:06;;;;;;;3.08;1.20;;;31.40;99.90;;;;;;5092848;28;20184;-91
2022/08/13 12:17:06;;;;;;;3.97;1.23;;;31.60;99.90;;;;;;5093702;28;20156;-92
2022/08/13 12:20:04;;;;;;;3.50;1.30;;;31.50;99.90;;;;;;5087980;28;20191;-94
2022/08/13 12:22:38;;;;;;;3.03;0.98;;;31.40;99.90;;;;;;5079814;28;20222;-96
2022/08/13 12:25:13;;;;;;;1.42;1.00;;;31.20;99.90;;;;;;5089850;28;20195;-94
2022/08/13 12:27:41;;;;;;;2.55;1.20;;;31.20;99.90;;;;;;5070128;28;20224;-94
2022/08/13 12:30:17;;;;;;;4.45;1.40;;;31.20;99.90;;;;;;5089872;28;20184;-94
2022/08/13 12:32:43;;;;;;;3.30;1.30;;;31.00;99.90;;;;;;5091300;28;20187;-94
2022/08/13 12:35:22;;;;;;;3.70;1.00;;;31.10;99.90;;;;;;5093287;28;20223;-87
2022/08/13 12:38:07;;;;;;;2.83;1.10;;;31.20;99.90;;;;;;5096317;28;20198;-88
2022/08/13 12:40:40;;;;;;;3.08;0.90;;;30.80;99.90;;;;;;5096155;28;20160;-93
2022/08/13 12:43:39;;;;;;;2.40;1.00;;;30.80;99.90;;;;;;5096987;28;20163;-95
2022/08/13 12:46:11;;;;;;;2.30;1.00;;;30.90;99.90;;;;;;5095268;28;20251;-96
2022/08/13 12:49:20;;;;;;;2.47;0.90;;;31.00;99.90;;;;;;5095775;28;20184;-96
2022/08/13 12:52:02;;;;;;;3.67;1.15;;;31.20;99.90;;;;;;5094629;28;20180;-96
2022/08/13 12:54:51;;;;;;;3.28;1.30;;;31.20;99.90;;;;;;5095813;28;20184;-89
2022/08/13 12:57:23;;;;;;;2.03;1.10;;;31.00;99.90;;;;;;5098272;28;20160;-89
2022/08/13 13:00:33;;;;;;;8.82;1.63;;;30.90;99.90;;;;;;5076577;28;20220;-90
2022/08/13 13:03:22;;;;;;;2.17;1.10;;;30.70;99.90;;;;;;5085267;28;20180;-91
2022/08/13 13:06:18;;;;;;;1.88;1.10;;;30.70;99.90;;;;;;5089285;28;20207;-91
2022/08/13 13:08:48;;;;;;;4.20;1.30;;;30.90;99.90;;;;;;5067915;28;20191;-92
2022/08/13 13:11:30;;;;;;;5.30;1.60;;;31.30;99.90;;;;;;5091380;28;20183;-91
2022/08/13 13:14:07;;;;;;;4.32;1.00;;;31.50;99.90;;;;;;5072567;28;20203;-93
2022/08/13 13:16:41;;;;;;;2.17;0.80;;;31.40;99.90;;;;;;5077051;28;20180;-90
2022/08/13 13:19:13;;;;;;;3.65;1.17;;;31.30;99.90;;;;;;5092087;28;20184;-89
2022/08/13 13:22:05;;;;;;;4.55;1.10;;;31.50;99.90;;;;;;5094388;28;20172;-90
2022/08/13 13:25:01;;;;;;;4.00;1.25;;;31.40;99.90;;;;;;5083378;28;20186;-91
2022/08/13 13:27:56;;;;;;;4.20;1.35;;;31.50;99.90;;;;;;5097760;28;20215;-92
2022/08/13 13:31:07;;;;;;;1.35;1.10;;;31.50;99.90;;;;;;5096094;28;20176;-90
2022/08/13 13:34:17;;;;;;;5.32;1.20;;;31.50;99.90;;;;;;5096370;28;20167;-91
2022/08/13 13:37:04;;;;;;;2.75;1.10;;;31.40;99.90;;;;;;5095222;28;20160;-90
2022/08/13 13:39:40;;;;;;;3.17;1.20;;;31.30;99.90;;;;;;5095168;28;20152;-89
2022/08/13 13:42:35;;;;;;;1.60;1.10;;;31.70;99.90;;;;;;5094776;28;20182;-90
2022/08/13 13:45:38;;;;;;;5.07;1.40;;;32.20;99.90;;;;;;5094909;28;20177;-92
2022/08/13 13:48:45;;;;;;;1.50;1.00;;;32.20;99.90;;;;;;5079389;28;20195;-91
2022/08/13 13:51:32;;;;;;;3.33;1.20;;;32.00;99.90;;;;;;5096282;28;20179;-94
2022/08/13 13:54:34;;;;;;;5.45;1.50;;;32.20;99.90;;;;;;5100684;28;20172;-92
2022/08/13 13:57:28;;;;;;;2.65;0.90;;;32.30;99.90;;;;;;5100685;28;20178;-92
2022/08/13 14:00:21;;;;;;;2.78;1.10;;;32.20;99.90;;;;;;5101001;28;20218;-95
2022/08/13 14:03:11;;;;;;;3.97;1.45;;;32.10;99.90;;;;;;5101311;28;20200;-89
2022/08/13 14:06:20;;;;;;;2.17;1.13;;;32.10;99.90;;;;;;5101697;28;20196;-89
2022/08/13 14:09:20;;;;;;;4.50;0.98;;;32.60;99.90;;;;;;5100972;28;20172;-87
2022/08/13 14:12:02;;;;;;;2.15;1.10;;;33.00;99.90;;;;;;5100220;28;20176;-90
2022/08/13 14:14:37;;;;;;;3.00;1.50;;;33.30;99.90;;;;;;5098978;28;20236;-90
2022/08/13 14:17:30;;;;;;;2.05;1.40;;;33.50;99.90;;;;;;5099903;28;20235;-91
2022/08/13 14:21:02;;;;;;;3.90;1.25;;;33.00;99.90;;;;;;5101039;28;20232;-90
2022/08/13 14:23:30;;;;;;;4.30;1.60;;;32.80;99.90;;;;;;5100421;28;20160;-93
2022/08/13 14:26:04;;;;;;;1.88;1.20;;;32.20;99.90;;;;;;5100547;28;20256;-91
2022/08/13 14:32:12;;;;;;;3.30;1.13;;;32.40;99.90;;;;;;5101383;28;20230;-91
2022/08/13 14:35:54;;;;;;;5.25;1.63;;;32.30;99.90;;;;;;5099830;28;20168;-92
2022/08/13 14:38:58;;;;;;;1.92;1.30;;;32.50;99.90;;;;;;5100249;28;20178;-90
2022/08/13 14:42:25;;;;;;;4.03;1.35;;;32.70;99.90;;;;;;5101077;28;20149;-91
2022/08/13 14:47:59;;;;;;;2.22;1.13;;;32.20;99.90;;;;;;5093585;28;20206;-91
2022/08/13 14:50:31;;;;;;;5.38;1.20;;;32.20;99.90;;;;;;5093531;28;20180;-91
2022/08/13 14:53:18;;;;;;;2.72;1.00;;;32.40;99.90;;;;;;5096614;28;20176;-91
2022/08/13 14:59:14;;;;;;;2.25;1.27;;;32.60;99.90;;;;;;5096801;28;20207;-91
2022/08/13 15:02:19;;;;;;;2.65;1.38;;;32.70;99.90;;;;;;5095673;28;20204;-92
2022/08/13 15:05:20;;;;;;;5.32;1.20;;;33.00;99.90;;;;;;5093227;28;20184;-91
2022/08/13 15:08:21;;;;;;;3.25;1.08;;;33.40;99.90;;;;;;5093175;28;20199;-91
2022/08/13 15:14:23;;;;;;;2.97;1.17;;;33.70;99.90;;;;;;5094679;28;20187;-90
2022/08/13 15:17:03;;;;;;;3.00;1.20;;;33.40;99.90;;;;;;5092794;28;20241;-91
2022/08/13 15:20:05;;;;;;;2.70;1.20;;;33.40;99.90;;;;;;5097416;28;20184;-90
2022/08/13 15:23:00;;;;;;;3.25;1.20;;;33.50;99.90;;;;;;5097399;28;20168;-90
2022/08/13 15:26:00;;;;;;;4.32;1.48;;;34.10;99.90;;;;;;5079363;28;20184;-90
2022/08/13 15:29:03;;;;;;;2.55;1.63;;;34.40;99.90;;;;;;5099361;28;20152;-91
2022/08/13 15:31:59;;;;;;;5.22;1.35;;;34.30;99.90;;;;;;5096739;28;20172;-90
2022/08/13 15:38:44;;;;;;;2.72;1.02;;;34.30;99.90;;;;;;5098668;28;20244;-89
2022/08/13 15:41:23;;;;;;;3.40;1.10;;;34.20;99.90;;;;;;5096767;28;20169;-90
2022/08/13 15:44:06;;;;;;;2.13;1.48;;;34.40;99.90;;;;;;5095158;28;20255;-89
2022/08/13 15:50:43;;;;;;;2.75;1.08;;;34.70;99.90;;;;;;5095853;28;20202;-89
2022/08/13 15:53:34;;;;;;;1.83;0.80;;;34.30;99.90;;;;;;5094449;28;20533;-90
2022/08/13 16:03:17;;;;;;;3.92;1.77;;;33.70;99.90;;;;;;5097375;28;20214;-90
2022/08/13 16:06:00;;;;;;;5.85;1.58;;;33.50;99.90;;;;;;5092688;28;20231;-90
2022/08/13 16:09:21;;;;;;;4.10;1.40;;;33.60;99.90;;;;;;5091466;28;20207;-91
2022/08/13 16:12:22;;;;;;;6.18;4.72;;;34.00;99.90;;;;;;5078317;28;20228;-91
2022/08/13 16:15:19;;;;;;;4.07;1.52;;;34.30;99.90;;;;;;5077565;28;20244;-91
2022/08/13 16:18:18;;;;;;;2.67;1.33;;;34.70;99.90;;;;;;5096806;28;20198;-91
2022/08/13 16:24:55;;;;;;;3.90;0.93;;;34.10;99.90;;;;;;5097037;28;20202;-91
2022/08/13 16:28:27;;;;;;;1.83;0.82;;;33.70;99.90;;;;;;5097834;28;20204;-91
2022/08/13 16:35:25;;;;;;;4.20;1.50;;;33.80;99.90;;;;;;5099119;28;20219;-92
2022/08/13 16:38:46;;;;;;;4.40;1.50;;;34.20;99.90;;;;;;5098114;28;20175;-90
2022/08/13 16:41:51;;;;;;;3.38;1.33;;;33.90;99.90;;;;;;5098203;28;20203;-92
2022/08/13 16:44:39;;;;;;;2.50;1.13;;;34.00;99.90;;;;;;5098079;28;20188;-89
2022/08/13 16:47:13;;;;;;;2.55;1.40;;;33.40;99.90;;;;;;5096029;28;20211;-90
2022/08/13 16:53:49;;;;;;;3.00;1.33;;;33.80;99.90;;;;;;5098145;28;20209;-91